Time;durP1;ratioP1;P1;durP2;ratioP2;P2;SDS_P1;SDS_P2;PMS_P1;PMS_P2;Temp;Humidity;BMP_temperature;BMP_pressure;BME280_temperature;BME280_humidity;BME280_pressure;Samples;Min_cycle;Max_cycle;Signal;HPM_P1;HPM_P2
2023/07/11 00:00:31;;;;;;;;;;;25.60;39.60;;;25.06;39.07;101505.81;12253453;19;19923;-90
2023/07/11 00:04:37;;;;;;;;;;;25.50;39.60;;;25.00;39.09;101512.63;12250100;19;20262;-90
2023/07/11 00:08:38;;;;;;;;;;;25.50;39.60;;;24.92;39.11;101505.44;12254197;19;19933;-89
2023/07/11 00:12:40;;;;;;;;;;;25.40;39.70;;;24.84;39.02;101502.69;12254839;19;19923;-89
2023/07/11 00:16:42;;;;;;;;;;;25.30;39.60;;;24.62;38.79;101482.72;12254358;19;19942;-89
2023/07/11 00:20:43;;;;;;;;;;;25.20;39.50;;;24.61;38.86;101490.91;12252038;19;19910;-89
2023/07/11 00:24:45;;;;;;;;;;;25.20;39.60;;;24.62;39.37;101504.09;12249015;19;19982;-89
2023/07/11 00:28:47;;;;;;;;;;;25.10;39.60;;;24.54;39.41;101490.69;12254510;19;19921;-89
2023/07/11 00:32:48;;;;;;;;;;;25.10;39.70;;;24.47;39.23;101495.00;12253747;19;20359;-89
2023/07/11 00:36:50;;;;;;;;;;;25.00;39.70;;;24.37;38.95;101503.06;12252271;19;19946;-89
2023/07/11 00:40:52;;;;;;;;;;;24.90;39.70;;;24.31;39.46;101508.19;12251337;19;19929;-89
2023/07/11 00:45:01;;;;;;;;;;;24.80;39.70;;;24.19;39.35;101487.06;12247415;19;19918;-89
2023/07/11 00:49:03;;;;;;;;;;;24.70;39.80;;;24.10;39.15;101485.34;12250568;19;19923;-89
2023/07/11 00:53:05;;;;;;;;;;;24.70;39.80;;;24.07;39.29;101489.16;12247991;19;19957;-89
2023/07/11 00:57:09;;;;;;;;;;;24.60;39.90;;;23.93;39.42;101479.03;12247245;19;19919;-90
2023/07/11 01:01:11;;;;;;;;;;;24.60;39.90;;;23.91;39.38;101489.00;12249663;19;19915;-90
2023/07/11 01:05:13;;;;;;;;;;;24.50;40.00;;;23.72;39.25;101455.34;12250719;19;19915;-89
2023/07/11 01:09:15;;;;;;;;;;;24.50;40.20;;;23.83;39.63;101475.59;12250671;19;19922;-89
2023/07/11 01:13:16;;;;;;;;;;;24.50;40.10;;;23.83;39.40;101492.44;12248565;19;19922;-88
2023/07/11 01:17:29;;;;;;;;;;;24.30;40.00;;;23.73;39.41;101481.00;12250054;19;19922;-88
2023/07/11 01:21:32;;;;;;;;;;;24.20;39.90;;;23.68;39.59;101493.91;12251335;19;19930;-89
2023/07/11 01:25:35;;;;;;;;;;;24.20;40.10;;;23.37;39.82;101448.13;12250440;19;19931;-88
2023/07/11 01:29:37;;;;;;;;;;;24.10;40.20;;;23.38;39.68;101461.28;12250851;19;20290;-88
2023/07/11 01:33:39;;;;;;;;;;;24.00;40.10;;;23.41;39.67;101479.66;12248396;19;19925;-88
2023/07/11 01:37:41;;;;;;;;;;;24.00;40.20;;;23.45;40.07;101492.69;12248568;19;20269;-90
2023/07/11 01:41:43;;;;;;;;;;;24.00;40.20;;;23.33;39.70;101489.38;12250587;19;19923;-90
2023/07/11 01:45:44;;;;;;;;;;;23.90;40.20;;;23.16;40.10;101467.03;12251253;19;19935;-90
2023/07/11 01:49:46;;;;;;;;;;;23.90;40.20;;;23.26;39.74;101491.81;12249645;19;19923;-90
2023/07/11 01:53:47;;;;;;;;;;;23.90;40.30;;;23.26;39.95;101491.81;12244188;19;19915;-90
2023/07/11 01:57:49;;;;;;;;;;;23.80;40.20;;;23.24;39.83;101496.44;12247984;19;19918;-91
2023/07/11 02:01:50;;;;;;;;;;;23.80;40.30;;;22.94;40.02;101466.41;12247798;19;19986;-89
2023/07/11 02:05:52;;;;;;;;;;;23.80;40.30;;;23.14;40.13;101507.19;12247922;19;19918;-89
2023/07/11 02:09:54;;;;;;;;;;;23.70;40.30;;;23.04;40.25;101495.72;12248192;19;19922;-89
2023/07/11 02:13:55;;;;;;;;;;;23.70;40.30;;;23.00;40.24;101499.66;12246133;19;19915;-89
2023/07/11 02:17:57;;;;;;;;;;;23.60;40.30;;;23.01;40.02;101500.47;12248217;19;19940;-90
2023/07/11 02:21:59;;;;;;;;;;;23.60;40.50;;;22.95;40.31;101494.75;12247625;19;19918;-89
2023/07/11 02:26:00;;;;;;;;;;;23.50;40.30;;;22.61;40.37;101453.66;12248582;19;19957;-89
2023/07/11 02:30:03;;;;;;;;;;;23.50;40.30;;;22.81;40.40;101500.53;12249988;19;19911;-89
2023/07/11 02:34:05;;;;;;;;;;;23.40;40.30;;;22.67;40.57;101487.69;12246371;19;19929;-90
2023/07/11 02:38:07;;;;;;;;;;;23.30;40.40;;;22.54;40.11;101480.84;12248055;19;19919;-90
2023/07/11 02:42:08;;;;;;;;;;;23.30;40.60;;;22.54;40.58;101494.16;12247009;19;19927;-90
2023/07/11 02:46:10;;;;;;;;;;;23.20;40.40;;;22.55;40.36;101497.69;12247344;19;19922;-90
2023/07/11 02:50:12;;;;;;;;;;;23.10;40.80;;;22.54;40.60;101510.13;12248027;19;19955;-90
2023/07/11 02:54:14;;;;;;;;;;;23.10;40.50;;;22.48;40.74;101497.41;12241290;19;19915;-89
2023/07/11 02:58:16;;;;;;;;;;;23.10;40.50;;;22.42;40.70;101490.00;12242148;19;19931;-89
2023/07/11 03:02:17;;;;;;;;;;;23.00;40.50;;;22.30;40.70;101488.47;12241890;19;19934;-89
2023/07/11 03:06:19;;;;;;;;;;;23.00;40.50;;;22.07;40.61;101462.16;12244116;19;19919;-89
2023/07/11 03:10:21;;;;;;;;;;;22.90;40.50;;;22.25;40.63;101493.38;12244267;19;19922;-89
2023/07/11 03:14:22;;;;;;;;;;;22.90;40.60;;;22.14;40.85;101483.69;12241314;19;19919;-89
2023/07/11 03:18:24;;;;;;;;;;;22.80;40.50;;;22.02;40.79;101479.53;12241367;19;19918;-89
2023/07/11 03:22:27;;;;;;;;;;;22.70;40.50;;;22.13;40.48;101500.66;12250463;19;19914;-89
2023/07/11 03:26:28;;;;;;;;;;;22.70;40.60;;;21.99;40.78;101491.28;12252861;19;19923;-89
2023/07/11 03:30:31;;;;;;;;;;;22.70;40.60;;;21.84;40.67;101468.72;12254514;19;20269;-89
2023/07/11 03:34:33;;;;;;;;;;;22.60;40.70;;;22.01;40.93;101507.94;12252747;19;20262;-89
2023/07/11 03:38:35;;;;;;;;;;;22.60;40.70;;;21.77;40.74;101476.44;12255452;19;19915;-89
2023/07/11 03:42:36;;;;;;;;;;;22.60;40.70;;;21.67;41.04;101478.25;12254435;19;20306;-89
2023/07/11 03:46:38;;;;;;;;;;;22.50;40.80;;;21.85;41.00;101512.97;12256089;19;19919;-89
2023/07/11 03:50:40;;;;;;;;;;;22.50;40.70;;;21.68;40.88;101495.03;12257790;19;20678;-87
2023/07/11 03:54:41;;;;;;;;;;;22.50;40.80;;;21.73;40.96;101503.44;12252015;19;19978;-90
2023/07/11 03:58:43;;;;;;;;;;;22.40;40.90;;;21.68;40.88;101505.66;12254689;19;19918;-89
2023/07/11 04:02:47;;;;;;;;;;;22.40;41.00;;;21.63;41.26;101509.59;12253072;19;19933;-89
2023/07/11 04:06:49;;;;;;;;;;;22.30;40.90;;;21.62;41.00;101525.66;12256638;19;19926;-89
2023/07/11 04:10:50;;;;;;;;;;;22.30;41.00;;;21.57;40.94;101523.41;12257179;19;20322;-89
2023/07/11 04:14:52;;;;;;;;;;;22.20;41.10;;;21.57;41.19;101523.41;12252008;19;20337;-89
2023/07/11 04:18:54;;;;;;;;;;;22.20;41.10;;;21.46;41.20;101507.59;12253026;19;20482;-89
2023/07/11 04:22:55;;;;;;;;;;;22.20;41.10;;;21.35;41.27;101489.91;12252556;19;19918;-90
2023/07/11 04:26:57;;;;;;;;;;;22.20;41.30;;;21.47;41.33;101509.28;12258567;19;19959;-88
2023/07/11 04:30:59;;;;;;;;;;;22.20;41.30;;;21.26;41.39;101485.41;12253522;19;20314;-87
2023/07/11 04:35:01;;;;;;;;;;;22.10;41.50;;;21.42;41.40;101509.69;12247038;19;20364;-90
2023/07/11 04:39:03;;;;;;;;;;;22.10;41.50;;;21.40;41.65;101501.00;12254029;19;19915;-89
2023/07/11 04:43:05;;;;;;;;;;;22.10;41.80;;;21.38;41.32;101500.28;12254215;19;19919;-90
2023/07/11 04:47:06;;;;;;;;;;;22.10;41.60;;;21.25;41.32;101472.25;12255817;19;19990;-89
2023/07/11 04:51:10;;;;;;;;;;;22.10;41.70;;;21.47;41.47;101497.78;12257236;19;19923;-90
2023/07/11 04:55:13;;;;;;;;;;;22.10;41.90;;;21.51;41.83;101500.03;12258456;19;19907;-90
2023/07/11 04:59:14;;;;;;;;;;;22.20;42.00;;;21.60;41.36;101493.94;12254465;19;20267;-89
2023/07/11 05:03:16;;;;;;;;;;;22.20;42.10;;;21.67;41.57;101504.84;12252089;19;19923;-89
2023/07/11 05:07:18;;;;;;;;;;;22.30;42.30;;;21.70;41.50;101495.75;12251994;19;20254;-89
2023/07/11 05:11:20;;;;;;;;;;;22.40;42.40;;;21.72;42.14;101481.34;12253867;19;19923;-89
2023/07/11 05:15:22;;;;;;;;;;;22.50;42.70;;;21.90;42.17;101500.09;12245403;19;19915;-89
2023/07/11 05:19:24;;;;;;;;;;;22.60;43.00;;;22.01;41.80;101491.97;12251091;19;19922;-88
2023/07/11 05:23:28;;;;;;;;;;;22.70;43.10;;;21.90;42.32;101460.22;12251929;19;19923;-89
2023/07/11 05:27:30;;;;;;;;;;;22.80;43.10;;;22.20;42.30;101485.84;12253770;19;19926;-89
2023/07/11 05:31:32;;;;;;;;;;;22.90;43.00;;;22.33;42.24;101493.50;12253380;19;19919;-90
2023/07/11 05:35:41;;;;;;;;;;;23.10;43.60;;;22.34;42.24;101468.59;12253553;19;19927;-89
2023/07/11 05:39:42;;;;;;;;;;;23.20;44.00;;;22.59;42.54;101491.06;12249937;19;19914;-85
2023/07/11 05:43:44;;;;;;;;;;;23.30;43.50;;;22.62;42.49;101466.81;12246852;19;19911;-85
2023/07/11 05:47:45;;;;;;;;;;;23.50;43.10;;;22.88;42.29;101482.16;12249971;19;19919;-84
2023/07/11 05:51:47;;;;;;;;;;;23.70;43.90;;;22.96;42.49;101471.63;12249341;19;19946;-84
2023/07/11 05:55:49;;;;;;;;;;;23.80;43.60;;;23.10;42.47;101456.97;12251349;19;19918;-85
2023/07/11 05:59:50;;;;;;;;;;;24.00;44.10;;;23.20;42.89;101455.13;12246120;19;19911;-85
2023/07/11 06:04:06;;;;;;;;;;;24.10;42.80;;;23.48;42.92;101471.06;12244267;19;20387;-83
2023/07/11 06:08:08;;;;;;;;;;;24.30;43.10;;;23.68;42.88;101469.09;12247823;19;19919;-83
2023/07/11 06:12:09;;;;;;;;;;;24.50;42.90;;;23.88;43.01;101461.81;12245409;19;19918;-83
2023/07/11 06:16:16;;;;;;;;;;;24.70;43.70;;;24.04;42.70;101457.44;12245753;19;19992;-83
2023/07/11 06:20:18;;;;;;;;;;;25.00;43.80;;;24.24;42.62;101460.75;12244032;19;19926;-84
2023/07/11 06:24:19;;;;;;;;;;;25.10;43.50;;;24.26;42.85;101433.91;12244762;19;20283;-84
2023/07/11 06:28:21;;;;;;;;;;;25.30;43.00;;;24.49;42.99;101444.91;12245450;19;19943;-83
2023/07/11 06:32:22;;;;;;;;;;;25.50;43.00;;;24.62;42.54;101447.16;12244022;19;19923;-82
2023/07/11 06:36:24;;;;;;;;;;;25.60;42.90;;;24.76;42.79;101456.41;12243150;19;19926;-84
2023/07/11 06:40:26;;;;;;;;;;;25.70;43.10;;;24.88;42.67;101457.81;12241629;19;20438;-82
2023/07/11 06:44:27;;;;;;;;;;;25.90;43.40;;;25.03;42.54;101464.19;12241997;19;19940;-83
2023/07/11 06:48:31;;;;;;;;;;;26.00;42.90;;;24.99;42.93;101428.13;12245261;19;19926;-84
2023/07/11 06:52:32;;;;;;;;;;;26.10;42.50;;;25.21;42.72;101450.78;12243587;19;19936;-84
2023/07/11 06:56:34;;;;;;;;;;;26.30;42.80;;;25.27;42.55;101446.59;12247155;19;19986;-84
2023/07/11 07:00:35;;;;;;;;;;;26.30;42.30;;;25.45;42.72;101459.84;12253755;19;20247;-83
2023/07/11 07:04:37;;;;;;;;;;;26.40;42.20;;;25.48;42.57;101448.81;12254657;19;20259;-84
2023/07/11 07:08:39;;;;;;;;;;;26.50;41.80;;;25.58;42.80;101457.53;12256864;19;19911;-84
2023/07/11 07:12:41;;;;;;;;;;;26.60;41.70;;;25.53;42.64;101439.31;12252666;19;19922;-83
2023/07/11 07:16:42;;;;;;;;;;;26.60;42.00;;;25.67;42.27;101445.84;12254185;19;19927;-82
2023/07/11 07:20:48;;;;;;;;;;;26.70;41.70;;;25.77;42.42;101446.50;12250980;19;19940;-83
2023/07/11 07:24:49;;;;;;;;;;;26.70;41.80;;;25.92;42.69;101449.38;12247698;19;19926;-83
2023/07/11 07:28:50;;;;;;;;;;;26.90;41.90;;;26.02;42.62;101450.03;12253334;19;19936;-83
2023/07/11 07:32:51;;;;;;;;;;;26.90;42.00;;;26.06;42.38;101437.19;12251066;19;20265;-83
2023/07/11 07:36:53;;;;;;;;;;;27.00;41.60;;;26.18;42.15;101430.47;12252514;19;19911;-83
2023/07/11 07:40:58;;;;;;;;;;;27.10;41.80;;;26.33;42.12;101433.28;12249562;19;20336;-83
2023/07/11 07:45:00;;;;;;;;;;;27.30;41.40;;;26.44;42.37;101432.09;12249216;19;19915;-83
2023/07/11 07:49:01;;;;;;;;;;;27.40;41.40;;;26.50;42.07;101412.66;12253201;19;19951;-84
2023/07/11 07:53:03;;;;;;;;;;;27.50;41.50;;;26.69;42.47;101414.94;12249508;19;19919;-84
2023/07/11 07:57:05;;;;;;;;;;;27.60;41.40;;;26.95;42.57;101423.69;12252344;19;19922;-83
2023/07/11 08:01:07;;;;;;;;;;;27.90;41.30;;;27.12;42.34;101425.31;12252924;19;19911;-85
2023/07/11 08:05:08;;;;;;;;;;;28.00;41.00;;;27.22;42.17;101404.50;12248649;19;19978;-83
2023/07/11 08:09:10;;;;;;;;;;;28.20;41.10;;;27.38;42.19;101414.25;12249138;19;19922;-83
2023/07/11 08:13:12;;;;;;;;;;;28.40;40.30;;;27.49;42.00;101404.94;12249796;19;19935;-82
2023/07/11 08:17:13;;;;;;;;;;;28.50;40.50;;;27.58;41.86;101399.34;12250583;19;19918;-85
2023/07/11 08:21:15;;;;;;;;;;;28.60;40.60;;;27.73;42.19;101396.72;12253270;19;19934;-84
2023/07/11 08:25:17;;;;;;;;;;;28.70;40.40;;;27.90;41.88;101410.03;12249270;19;19942;-85
2023/07/11 08:29:18;;;;;;;;;;;28.90;40.10;;;27.96;41.88;101398.56;12252939;19;19919;-84
2023/07/11 08:33:20;;;;;;;;;;;29.00;40.10;;;28.11;41.73;101399.44;12243899;19;19930;-83
2023/07/11 08:37:22;;;;;;;;;;;29.10;40.00;;;28.19;41.78;101401.16;12251390;19;19915;-83
2023/07/11 08:41:23;;;;;;;;;;;29.20;39.90;;;28.34;41.79;101393.94;12251263;19;19927;-84
2023/07/11 08:45:28;;;;;;;;;;;29.40;38.80;;;28.45;41.53;101390.00;12251701;19;19939;-83
2023/07/11 08:49:36;;;;;;;;;;;29.50;39.30;;;28.62;41.52;101390.63;12251049;19;19933;-84
2023/07/11 08:53:42;;;;;;;;;;;29.60;38.80;;;28.74;41.22;101380.25;12246459;19;19918;-83
2023/07/11 08:57:53;;;;;;;;;;;29.80;39.10;;;28.89;41.26;101375.66;12246724;19;19919;-83
2023/07/11 09:02:04;;;;;;;;;;;29.90;39.10;;;29.06;41.03;101377.13;12247737;19;19932;-84
2023/07/11 09:06:07;;;;;;;;;;;30.10;36.60;;;29.14;40.76;101372.63;12247135;19;20599;-84
2023/07/11 09:10:35;;;;;;;;;;;30.20;38.50;;;29.28;40.85;101369.06;12249447;19;20334;-83
2023/07/11 09:15:00;;;;;;;;;;;30.30;38.80;;;29.34;40.50;101363.72;12243997;19;20576;-84
2023/07/11 09:19:24;;;;;;;;;;;30.40;38.10;;;29.42;40.59;101352.00;12245726;19;19919;-83
2023/07/11 09:23:40;;;;;;;;;;;30.50;38.30;;;29.52;40.43;101349.00;12246348;19;19923;-85
2023/07/11 09:27:51;;;;;;;;;;;30.60;38.40;;;29.61;40.45;101344.28;12249132;19;20386;-82
2023/07/11 09:31:57;;;;;;;;;;;30.60;38.00;;;29.71;40.53;101342.13;12246580;19;19911;-83
2023/07/11 09:36:01;;;;;;;;;;;30.80;38.20;;;29.83;40.22;101337.03;12245885;19;19919;-84
2023/07/11 09:40:20;;;;;;;;;;;30.80;38.10;;;29.93;40.07;101330.25;12246126;19;19911;-84
2023/07/11 09:44:21;;;;;;;;;;;31.00;38.30;;;30.06;39.81;101332.22;12244406;19;19926;-84
2023/07/11 09:48:27;;;;;;;;;;;31.10;36.90;;;30.20;39.60;101331.25;12247728;19;19922;-83
2023/07/11 09:52:28;;;;;;;;;;;31.20;37.90;;;30.22;39.70;101322.97;12245408;19;19982;-84
2023/07/11 09:56:41;;;;;;;;;;;31.30;37.50;;;30.37;39.48;101334.47;12249601;19;19915;-84
2023/07/11 10:00:45;;;;;;;;;;;31.30;35.30;;;30.49;39.34;101333.88;12245690;19;19918;-84
2023/07/11 10:04:47;;;;;;;;;;;31.40;37.40;;;30.55;39.46;101328.53;12246824;19;20354;-84
2023/07/11 10:08:49;;;;;;;;;;;31.50;37.50;;;30.58;39.42;101306.53;12245793;19;19946;-85
2023/07/11 10:12:51;;;;;;;;;;;31.60;37.30;;;30.77;39.25;101304.13;12245085;19;19931;-84
2023/07/11 10:16:54;;;;;;;;;;;31.70;36.70;;;30.88;38.91;101300.03;12249310;19;19923;-85
2023/07/11 10:21:04;;;;;;;;;;;31.80;37.80;;;30.98;39.13;101285.09;12244095;19;19915;-81
2023/07/11 10:25:14;;;;;;;;;;;31.90;37.50;;;31.12;38.75;101277.84;12239402;19;20258;-83
2023/07/11 10:29:19;;;;;;;;;;;32.00;37.70;;;31.13;38.75;101266.00;12245507;19;19959;-85
2023/07/11 10:33:28;;;;;;;;;;;32.10;36.80;;;31.08;38.78;101247.75;12253744;19;19933;-84
2023/07/11 10:37:43;;;;;;;;;;;32.20;37.30;;;31.28;38.94;101269.31;12256430;19;19925;-84
2023/07/11 10:41:50;;;;;;;;;;;32.30;37.50;;;31.36;38.32;101260.19;12256918;19;19921;-83
2023/07/11 10:46:00;;;;;;;;;;;32.30;35.60;;;31.35;38.32;101249.59;12256488;19;19923;-84
2023/07/11 10:50:08;;;;;;;;;;;32.30;35.00;;;31.43;37.85;101250.25;12253350;19;20246;-83
2023/07/11 10:54:21;;;;;;;;;;;32.30;35.80;;;31.44;37.91;101251.91;12250200;19;19937;-84
2023/07/11 10:58:23;;;;;;;;;;;32.30;36.10;;;31.45;37.79;101233.81;12252730;19;19929;-83
2023/07/11 11:02:45;;;;;;;;;;;32.40;36.60;;;31.62;37.83;101243.16;12251439;19;19919;-85
2023/07/11 11:06:55;;;;;;;;;;;32.50;37.10;;;31.70;37.67;101226.72;12256063;19;19915;-83
2023/07/11 11:11:01;;;;;;;;;;;32.60;35.80;;;31.82;37.52;101234.16;12251137;19;19935;-83
2023/07/11 11:15:42;;;;;;;;;;;32.60;36.80;;;31.89;37.62;101232.25;12251663;19;19922;-84
2023/07/11 11:20:17;;;;;;;;;;;32.70;36.90;;;31.91;37.67;101213.94;12253026;19;19982;-86
2023/07/11 11:24:57;;;;;;;;;;;32.80;35.60;;;31.95;37.17;101207.94;12251024;19;19922;-83
2023/07/11 11:29:20;;;;;;;;;;;32.80;36.10;;;32.00;37.01;101201.91;12254484;19;19936;-83
2023/07/11 11:33:34;;;;;;;;;;;32.90;36.60;;;32.09;37.14;101206.00;12252219;19;19926;-83
2023/07/11 11:37:59;;;;;;;;;;;32.90;36.00;;;32.10;37.20;101210.34;12253563;19;19931;-84
2023/07/11 11:42:06;;;;;;;;;;;32.90;35.90;;;32.11;36.92;101198.53;12251741;19;19943;-85
2023/07/11 11:46:08;;;;;;;;;;;33.00;35.80;;;32.16;37.04;101181.63;12254826;19;20344;-82
2023/07/11 11:50:21;;;;;;;;;;;33.00;36.40;;;32.25;36.69;101177.66;12251506;19;19926;-85
2023/07/11 11:54:25;;;;;;;;;;;33.00;36.30;;;32.34;36.58;101175.50;12248871;19;19915;-83
2023/07/11 11:58:29;;;;;;;;;;;33.10;36.70;;;32.47;36.61;101177.34;12246884;19;19990;-83
2023/07/11 12:02:38;;;;;;;;;;;33.20;36.30;;;32.56;36.41;101167.91;12247065;19;19923;-84
2023/07/11 12:06:43;;;;;;;;;;;33.40;36.00;;;32.65;36.50;101163.03;12247316;19;19933;-82
2023/07/11 12:11:17;;;;;;;;;;;33.50;35.40;;;32.71;36.45;101159.47;12247984;19;19923;-83
2023/07/11 12:15:21;;;;;;;;;;;33.50;36.30;;;32.73;36.27;101146.53;12246989;19;19923;-83
2023/07/11 12:19:57;;;;;;;;;;;33.60;35.90;;;32.75;36.26;101145.25;12249441;19;19915;-83
2023/07/11 12:24:37;;;;;;;;;;;33.60;35.10;;;32.83;36.47;101142.28;12242600;19;19918;-83
2023/07/11 12:28:41;;;;;;;;;;;33.60;36.00;;;32.84;35.82;101143.13;12248754;19;19930;-84
2023/07/11 12:32:43;;;;;;;;;;;33.60;35.20;;;32.81;35.85;101133.56;12247643;19;19960;-83
2023/07/11 12:36:47;;;;;;;;;;;33.60;35.30;;;32.85;35.74;101133.94;12250688;19;19933;-82
2023/07/11 12:41:16;;;;;;;;;;;33.60;35.40;;;32.87;35.80;101121.03;12244330;19;19922;-82
2023/07/11 12:45:26;;;;;;;;;;;33.60;33.90;;;32.81;35.74;101114.63;12247566;19;20325;-83
2023/07/11 12:49:30;;;;;;;;;;;33.60;34.60;;;32.83;35.57;101112.53;12248572;19;19953;-83
2023/07/11 12:53:38;;;;;;;;;;;33.60;35.10;;;32.94;35.51;101121.78;12246007;19;19930;-83
2023/07/11 12:57:44;;;;;;;;;;;33.60;35.40;;;32.91;35.27;101100.59;12248552;19;19927;-84
2023/07/11 13:01:49;;;;;;;;;;;33.70;35.00;;;33.03;35.34;101104.25;12250676;19;19927;-84
2023/07/11 13:05:56;;;;;;;;;;;33.80;35.80;;;33.15;35.64;101103.50;12248330;19;19911;-83
2023/07/11 13:10:00;;;;;;;;;;;33.90;34.00;;;33.20;35.57;101103.66;12251647;19;19930;-84
2023/07/11 13:14:02;;;;;;;;;;;33.90;35.30;;;33.22;35.45;101096.97;12247093;19;19919;-83
2023/07/11 13:18:11;;;;;;;;;;;34.00;33.70;;;33.31;34.83;101100.19;12248239;19;19915;-85
2023/07/11 13:22:18;;;;;;;;;;;34.00;34.40;;;33.38;35.34;101083.84;12245600;19;20257;-84
2023/07/11 13:26:24;;;;;;;;;;;34.00;35.10;;;33.46;35.04;101076.25;12245668;19;20342;-84
2023/07/11 13:30:35;;;;;;;;;;;34.20;35.20;;;33.50;34.85;101069.31;12242730;19;20202;-84
2023/07/11 13:34:37;;;;;;;;;;;34.20;35.40;;;33.52;35.16;101054.75;12244145;19;19939;-86
2023/07/11 13:38:40;;;;;;;;;;;34.30;34.90;;;33.54;35.12;101056.19;12245964;19;19922;-84
2023/07/11 13:42:43;;;;;;;;;;;34.30;34.30;;;33.60;34.42;101055.28;12243439;19;19937;-83
2023/07/11 13:46:45;;;;;;;;;;;34.30;35.00;;;33.53;34.50;101038.28;12244962;19;19936;-84
2023/07/11 13:51:02;;;;;;;;;;;34.30;34.70;;;33.58;34.31;101051.97;12247773;19;19922;-84
2023/07/11 13:55:18;;;;;;;;;;;34.30;31.20;;;33.56;34.29;101045.94;12243098;19;19933;-84
2023/07/11 13:59:19;;;;;;;;;;;34.20;33.80;;;33.57;34.26;101052.22;12247026;19;20256;-84
2023/07/11 14:03:23;;;;;;;;;;;34.20;33.30;;;33.52;34.12;101033.91;12247346;19;20315;-85
2023/07/11 14:07:25;;;;;;;;;;;34.20;32.90;;;33.60;34.08;101036.31;12246768;19;20246;-84
2023/07/11 14:11:29;;;;;;;;;;;34.20;33.90;;;33.59;34.06;101025.69;12247293;19;20337;-84
2023/07/11 14:15:31;;;;;;;;;;;34.30;34.60;;;33.48;34.11;100994.78;12247674;19;19922;-85
2023/07/11 14:19:33;;;;;;;;;;;34.30;34.70;;;33.80;34.00;101027.88;12245875;19;19919;-84
2023/07/11 14:23:35;;;;;;;;;;;34.40;34.70;;;33.75;33.90;101003.34;12245044;19;19940;-84
2023/07/11 14:27:36;;;;;;;;;;;34.50;34.40;;;33.94;33.94;101017.66;12245847;19;20331;-84
2023/07/11 14:31:39;;;;;;;;;;;34.50;34.60;;;33.97;33.92;101019.06;12250266;19;19926;-85
2023/07/11 14:35:41;;;;;;;;;;;34.60;34.60;;;33.99;33.98;101011.56;12251293;19;19930;-85
2023/07/11 14:39:43;;;;;;;;;;;34.60;34.90;;;33.98;33.94;100994.47;12246739;19;19926;-84
2023/07/11 14:43:45;;;;;;;;;;;34.60;34.20;;;34.05;33.70;100997.06;12248378;19;19919;-86
2023/07/11 14:47:48;;;;;;;;;;;34.70;33.80;;;34.10;33.38;100997.22;12249631;19;19923;-84
2023/07/11 14:51:50;;;;;;;;;;;34.70;34.20;;;34.03;33.68;100980.22;12249376;19;19929;-85
2023/07/11 14:55:52;;;;;;;;;;;34.70;33.60;;;34.11;33.47;100991.56;12249309;19;19929;-84
2023/07/11 14:59:53;;;;;;;;;;;34.70;33.60;;;34.11;33.51;100980.72;12239784;19;19982;-85
2023/07/11 15:03:55;;;;;;;;;;;34.70;32.80;;;34.08;33.29;100978.50;12240278;19;19922;-84
2023/07/11 15:07:57;;;;;;;;;;;34.70;30.30;;;34.05;33.09;100972.66;12239694;19;20262;-85
2023/07/11 15:11:59;;;;;;;;;;;34.70;33.50;;;33.95;33.12;100953.47;12236680;19;19914;-87
2023/07/11 15:16:01;;;;;;;;;;;34.60;34.10;;;34.01;33.05;100958.75;12241957;19;20250;-85
2023/07/11 15:20:08;;;;;;;;;;;34.70;34.30;;;34.14;32.99;100972.13;12251122;19;19925;-86
2023/07/11 15:24:16;;;;;;;;;;;34.70;34.20;;;34.05;32.98;100948.25;12251782;19;19933;-86
2023/07/11 15:28:25;;;;;;;;;;;34.70;34.20;;;34.11;32.83;100937.34;12256360;19;19921;-85
2023/07/11 15:32:27;;;;;;;;;;;34.80;34.30;;;34.12;32.93;100924.63;12254360;19;19923;-86
2023/07/11 15:36:28;;;;;;;;;;;34.80;34.00;;;34.32;32.51;100945.94;12256247;19;19966;-88
2023/07/11 15:40:30;;;;;;;;;;;34.80;34.00;;;34.29;32.80;100933.66;12251333;19;19931;-86
2023/07/11 15:44:37;;;;;;;;;;;34.90;34.20;;;34.35;32.49;100935.47;12250266;19;20273;-86
2023/07/11 15:48:39;;;;;;;;;;;34.90;34.30;;;34.39;32.69;100934.97;12256702;19;19903;-86
2023/07/11 15:52:41;;;;;;;;;;;34.90;34.10;;;34.38;32.62;100936.88;12250265;19;19981;-86
2023/07/11 15:56:45;;;;;;;;;;;34.90;33.80;;;34.24;32.65;100903.75;12254482;19;19923;-86
2023/07/11 16:00:46;;;;;;;;;;;34.90;34.30;;;34.24;32.70;100909.19;12247695;19;19919;-85
2023/07/11 16:04:48;;;;;;;;;;;34.90;34.10;;;34.14;32.63;100895.41;12249099;19;20014;-86
2023/07/11 16:08:49;;;;;;;;;;;34.80;34.20;;;34.20;32.67;100909.88;12246125;19;19919;-86
2023/07/11 16:12:51;;;;;;;;;;;34.80;33.60;;;34.22;32.47;100916.72;12251128;19;19971;-85
2023/07/11 16:16:52;;;;;;;;;;;34.80;34.10;;;34.04;32.41;100878.88;12250506;19;20349;-86
2023/07/11 16:20:53;;;;;;;;;;;34.70;33.90;;;34.18;32.69;100904.69;12249640;19;19943;-86
2023/07/11 16:24:55;;;;;;;;;;;34.70;33.80;;;34.06;32.29;100882.19;12248653;19;19922;-86
2023/07/11 16:28:59;;;;;;;;;;;34.70;34.10;;;34.11;32.33;100896.69;12253947;19;19955;-86
2023/07/11 16:33:04;;;;;;;;;;;34.70;34.10;;;34.14;32.15;100895.41;12245158;19;19923;-86
2023/07/11 16:37:19;;;;;;;;;;;34.70;34.10;;;34.04;32.31;100881.56;12251520;19;19919;-86
2023/07/11 16:41:20;;;;;;;;;;;34.60;34.00;;;34.07;32.32;100891.97;12248902;19;19978;-86
2023/07/11 16:45:28;;;;;;;;;;;34.60;33.10;;;33.95;32.19;100883.81;12251331;19;19922;-85
2023/07/11 16:49:29;;;;;;;;;;;34.60;33.90;;;33.91;32.45;100882.63;12252228;19;19914;-85
2023/07/11 16:53:32;;;;;;;;;;;34.40;33.80;;;33.89;31.92;100880.16;12247641;19;19986;-86
2023/07/11 16:57:33;;;;;;;;;;;34.50;34.00;;;33.76;32.29;100853.31;12247601;19;19932;-85
2023/07/11 17:01:35;;;;;;;;;;;34.40;33.90;;;33.89;31.81;100874.75;12252646;19;19925;-86
2023/07/11 17:05:36;;;;;;;;;;;34.40;33.90;;;33.90;32.19;100862.84;12251162;19;19918;-86
2023/07/11 17:09:37;;;;;;;;;;;34.40;34.00;;;33.76;32.00;100828.94;12250417;19;19918;-86
2023/07/11 17:13:39;;;;;;;;;;;34.30;34.00;;;33.84;31.90;100850.25;12249689;19;20377;-87
2023/07/11 17:17:40;;;;;;;;;;;34.30;33.90;;;33.70;31.96;100829.84;12250590;19;19928;-85
2023/07/11 17:21:42;;;;;;;;;;;34.30;33.50;;;33.66;31.94;100829.50;12250649;19;19990;-86
2023/07/11 17:25:45;;;;;;;;;;;34.20;34.00;;;33.64;32.01;100838.91;12249716;19;19907;-85
2023/07/11 17:29:47;;;;;;;;;;;34.10;33.90;;;33.52;32.07;100819.94;12250321;19;19986;-85
2023/07/11 17:33:48;;;;;;;;;;;34.00;33.70;;;33.40;31.96;100808.25;12245734;19;19954;-85
2023/07/11 17:37:50;;;;;;;;;;;33.90;33.40;;;33.39;31.94;100829.09;12250163;19;20357;-86
2023/07/11 17:42:18;;;;;;;;;;;33.90;33.70;;;33.29;31.77;100823.44;12246029;19;19923;-86
2023/07/11 17:46:20;;;;;;;;;;;33.80;33.70;;;33.18;31.82;100806.09;12250029;19;19982;-88
2023/07/11 17:50:24;;;;;;;;;;;33.70;34.00;;;33.02;31.55;100788.66;12247820;19;20269;-86
2023/07/11 17:54:26;;;;;;;;;;;33.60;33.90;;;32.92;31.58;100784.81;12246339;19;20298;-86
2023/07/11 17:58:30;;;;;;;;;;;33.60;34.00;;;33.09;31.82;100814.81;12245207;19;19935;-86
2023/07/11 18:02:32;;;;;;;;;;;33.50;33.80;;;33.01;31.99;100810.53;12247375;19;19926;-86
2023/07/11 18:06:33;;;;;;;;;;;33.40;33.80;;;32.84;32.16;100791.41;12246258;19;19990;-87
2023/07/11 18:10:36;;;;;;;;;;;33.40;33.90;;;32.87;31.79;100800.97;12247465;19;19911;-87
2023/07/11 18:14:37;;;;;;;;;;;33.30;33.90;;;32.75;31.50;100792.78;12244222;19;19911;-86
2023/07/11 18:18:38;;;;;;;;;;;33.20;34.00;;;32.61;31.61;100784.84;12245820;19;20242;-86